createdAt,value
2019-05-11T00:00:55.063Z,0.00
2019-05-11T00:01:54.966Z,0.00
2019-05-11T00:02:54.908Z,0.00
2019-05-11T00:03:54.834Z,0.00
2019-05-11T00:04:54.770Z,0.00
2019-05-11T00:05:54.702Z,0.00
2019-05-11T00:06:54.649Z,0.00
2019-05-11T00:07:54.577Z,0.00
2019-05-11T00:08:54.563Z,0.00
2019-05-11T00:09:58.119Z,0.00
2019-05-11T00:10:54.383Z,0.00
2019-05-11T00:11:54.320Z,0.00
2019-05-11T00:12:54.247Z,0.00
2019-05-11T00:13:54.186Z,0.00
2019-05-11T00:14:54.119Z,0.00
2019-05-11T00:15:54.050Z,0.00
2019-05-11T00:16:53.990Z,0.00
2019-05-11T00:17:53.932Z,0.00
2019-05-11T00:18:53.871Z,0.00
2019-05-11T00:19:53.793Z,0.00
2019-05-11T00:20:53.724Z,0.00
2019-05-11T00:21:53.659Z,0.00
2019-05-11T00:22:53.597Z,0.00
2019-05-11T00:23:53.527Z,0.00
2019-05-11T00:24:53.462Z,0.00
2019-05-11T00:25:53.398Z,0.00
2019-05-11T00:26:53.332Z,0.00
2019-05-11T00:27:53.269Z,0.00
2019-05-11T00:28:53.203Z,0.00
2019-05-11T00:29:53.137Z,0.00
2019-05-11T00:30:53.070Z,0.00
2019-05-11T00:31:53.003Z,0.00
2019-05-11T00:32:52.943Z,0.00
2019-05-11T00:33:52.873Z,0.00
2019-05-11T00:34:52.811Z,0.00
2019-05-11T00:35:52.746Z,0.00
2019-05-11T00:36:52.677Z,0.00
2019-05-11T00:37:52.615Z,0.00
2019-05-11T00:38:52.545Z,0.00
2019-05-11T00:39:52.480Z,0.00
2019-05-11T00:40:52.414Z,0.00
2019-05-11T00:41:52.346Z,0.00
2019-05-11T00:42:52.321Z,0.00
2019-05-11T00:43:52.219Z,0.00
2019-05-11T00:44:52.150Z,0.00
2019-05-11T00:45:52.085Z,0.00
2019-05-11T00:46:52.017Z,0.00
2019-05-11T00:47:51.955Z,0.00
2019-05-11T00:48:51.891Z,0.00
2019-05-11T00:49:51.824Z,0.00
2019-05-11T00:50:51.768Z,0.00
2019-05-11T00:51:51.698Z,0.00
2019-05-11T00:52:51.633Z,0.00
2019-05-11T00:53:51.557Z,0.00
2019-05-11T00:54:51.493Z,0.00
2019-05-11T00:55:51.423Z,0.00
2019-05-11T00:56:51.360Z,0.00
2019-05-11T00:57:51.291Z,0.00
2019-05-11T00:58:51.272Z,0.00
2019-05-11T00:59:51.159Z,0.00
2019-05-11T01:00:51.096Z,0.00
2019-05-11T01:01:51.039Z,0.00
2019-05-11T01:02:50.958Z,0.00
2019-05-11T01:03:50.937Z,0.00
2019-05-11T01:04:50.837Z,0.00
2019-05-11T01:05:50.965Z,0.00
2019-05-11T01:06:50.706Z,0.00
2019-05-11T01:07:50.643Z,0.00
2019-05-11T01:08:50.571Z,0.00
2019-05-11T01:09:50.493Z,0.00
2019-05-11T01:10:50.434Z,0.00
2019-05-11T01:11:50.367Z,0.00
2019-05-11T01:12:50.303Z,0.00
2019-05-11T01:13:50.237Z,0.00
2019-05-11T01:14:50.168Z,0.00
2019-05-11T01:15:50.102Z,0.00
2019-05-11T01:16:50.031Z,0.00
2019-05-11T01:17:50.093Z,0.00
2019-05-11T01:18:49.904Z,0.00
2019-05-11T01:19:49.837Z,0.00
2019-05-11T01:20:49.769Z,0.00
2019-05-11T01:21:49.698Z,0.00
2019-05-11T01:22:49.636Z,0.00
2019-05-11T01:23:49.571Z,0.00
2019-05-11T01:24:49.502Z,0.00
2019-05-11T01:25:49.441Z,0.00
2019-05-11T01:26:49.374Z,0.00
2019-05-11T01:27:49.311Z,0.00
2019-05-11T01:28:49.236Z,0.00
2019-05-11T01:29:49.173Z,0.00
2019-05-11T01:30:49.103Z,0.00
2019-05-11T01:31:49.038Z,0.00
2019-05-11T01:32:48.966Z,0.00
2019-05-11T01:33:48.913Z,0.00
2019-05-11T01:34:48.840Z,0.00
2019-05-11T01:35:51.079Z,0.00
2019-05-11T01:36:48.705Z,0.00
2019-05-11T01:37:48.638Z,0.00
2019-05-11T01:38:48.574Z,0.00
2019-05-11T01:39:48.508Z,0.00
2019-05-11T01:40:58.104Z,0.00
2019-05-11T01:41:48.381Z,0.00
2019-05-11T01:42:48.319Z,0.00
2019-05-11T01:43:48.241Z,0.00
2019-05-11T01:44:48.179Z,0.00
2019-05-11T01:45:48.108Z,0.00
2019-05-11T01:46:48.045Z,0.00
2019-05-11T01:47:47.979Z,0.00
2019-05-11T01:48:47.920Z,0.00
2019-05-11T01:49:47.845Z,0.00
2019-05-11T01:50:47.794Z,0.00
2019-05-11T01:51:47.710Z,0.00
2019-05-11T01:52:47.647Z,0.00
2019-05-11T01:53:48.131Z,0.00
2019-05-11T01:54:47.511Z,0.00
2019-05-11T01:55:47.443Z,0.00
2019-05-11T01:56:47.379Z,0.00
2019-05-11T01:57:47.315Z,0.00
2019-05-11T01:58:47.246Z,0.00
2019-05-11T01:59:47.180Z,0.00
2019-05-11T02:00:47.115Z,0.00
2019-05-11T02:01:47.051Z,0.00
2019-05-11T02:02:46.979Z,0.00
2019-05-11T02:03:46.915Z,0.00
2019-05-11T02:04:46.855Z,0.00
2019-05-11T02:05:46.783Z,0.00
2019-05-11T02:06:46.735Z,0.00
2019-05-11T02:07:46.651Z,0.00
2019-05-11T02:08:46.581Z,0.00
2019-05-11T02:09:46.515Z,0.00
2019-05-11T02:10:46.446Z,0.00
2019-05-11T02:11:46.385Z,0.00
2019-05-11T02:12:46.316Z,0.00
2019-05-11T02:13:46.251Z,0.00
2019-05-11T02:14:46.183Z,0.00
2019-05-11T02:15:46.121Z,0.00
2019-05-11T02:16:46.053Z,0.00
2019-05-11T02:17:46.001Z,0.00
2019-05-11T02:18:45.917Z,0.00
2019-05-11T02:19:45.851Z,0.00
2019-05-11T02:20:45.786Z,0.00
2019-05-11T02:21:45.717Z,0.00
2019-05-11T02:22:45.651Z,0.00
2019-05-11T02:23:45.589Z,0.00
2019-05-11T02:24:45.523Z,0.00
2019-05-11T02:25:45.451Z,0.00
2019-05-11T02:26:45.389Z,0.00
2019-05-11T02:27:45.322Z,0.00
2019-05-11T02:28:45.252Z,0.00
2019-05-11T02:29:45.184Z,0.00
2019-05-11T02:30:45.120Z,0.00
2019-05-11T02:31:45.105Z,0.00
2019-05-11T02:32:44.988Z,0.00
2019-05-11T02:33:44.921Z,0.00
2019-05-11T02:34:44.851Z,0.00
2019-05-11T02:35:44.790Z,0.00
2019-05-11T02:36:44.718Z,0.00
2019-05-11T02:37:44.668Z,0.00
2019-05-11T02:38:44.601Z,0.00
2019-05-11T02:39:44.519Z,0.00
2019-05-11T02:40:44.453Z,0.00
2019-05-11T02:41:44.395Z,0.00
2019-05-11T02:42:44.325Z,0.00
2019-05-11T02:43:44.359Z,0.00
2019-05-11T02:44:44.198Z,0.00
2019-05-11T02:45:44.126Z,0.00
2019-05-11T02:46:44.054Z,0.00
2019-05-11T02:47:44.002Z,0.00
2019-05-11T02:48:43.919Z,0.00
2019-05-11T02:49:43.861Z,0.00
2019-05-11T02:50:43.792Z,0.00
2019-05-11T02:51:43.721Z,0.00
2019-05-11T02:52:43.672Z,0.00
2019-05-11T02:53:43.608Z,0.00
2019-05-11T02:54:43.531Z,0.00
2019-05-11T02:55:43.458Z,0.00
2019-05-11T02:56:43.396Z,0.00
2019-05-11T02:57:43.338Z,0.00
2019-05-11T02:58:43.258Z,0.00
2019-05-11T02:59:43.189Z,0.00
2019-05-11T03:00:43.146Z,0.00
2019-05-11T03:01:43.249Z,0.00
2019-05-11T03:02:43.035Z,0.00
2019-05-11T03:03:42.925Z,0.00
2019-05-11T03:04:42.854Z,0.00
2019-05-11T03:05:42.793Z,0.00
2019-05-11T03:06:42.723Z,0.00
2019-05-11T03:07:42.664Z,0.00
2019-05-11T03:08:42.589Z,0.00
2019-05-11T03:09:42.527Z,0.00
2019-05-11T03:10:42.454Z,0.00
2019-05-11T03:11:55.030Z,0.00
2019-05-11T03:12:42.338Z,0.00
2019-05-11T03:13:42.262Z,0.00
2019-05-11T03:14:42.187Z,0.00
2019-05-11T03:15:42.118Z,0.00
2019-05-11T03:16:42.049Z,0.00
2019-05-11T03:17:41.991Z,0.00
2019-05-11T03:18:41.931Z,0.00
2019-05-11T03:19:41.856Z,0.00
2019-05-11T03:20:41.792Z,0.00
2019-05-11T03:21:41.718Z,0.00
2019-05-11T03:22:41.653Z,0.00
2019-05-11T03:23:41.588Z,0.00
2019-05-11T03:24:41.516Z,0.00
2019-05-11T03:25:41.451Z,0.00
2019-05-11T03:26:41.404Z,0.00
2019-05-11T03:27:41.316Z,0.00
2019-05-11T03:28:41.247Z,0.00
2019-05-11T03:29:41.182Z,0.00
2019-05-11T03:30:41.133Z,0.00
2019-05-11T03:31:41.062Z,0.00
2019-05-11T03:32:40.981Z,0.00
2019-05-11T03:33:40.989Z,0.00
2019-05-11T03:34:40.843Z,0.00
2019-05-11T03:35:40.841Z,0.00
2019-05-11T03:36:40.718Z,0.00
2019-05-11T03:38:16.326Z,0.00
2019-05-11T03:38:40.577Z,0.00
2019-05-11T03:39:40.508Z,0.00
2019-05-11T03:40:40.455Z,0.00
2019-05-11T03:41:40.386Z,0.00
2019-05-11T03:42:40.306Z,0.00
2019-05-11T03:43:40.248Z,0.00
2019-05-11T03:44:40.239Z,0.00
2019-05-11T03:45:40.114Z,0.00
2019-05-11T03:46:40.047Z,0.00
2019-05-11T03:47:39.978Z,0.00
2019-05-11T03:48:39.898Z,0.00
2019-05-11T03:49:39.843Z,0.00
2019-05-11T03:50:39.771Z,0.00
2019-05-11T03:51:39.725Z,0.00
2019-05-11T03:52:39.636Z,0.00
2019-05-11T03:53:39.584Z,0.00
2019-05-11T03:54:39.503Z,0.00
2019-05-11T03:55:39.433Z,0.00
2019-05-11T03:56:39.377Z,0.00
2019-05-11T03:57:39.333Z,0.00
2019-05-11T03:58:39.247Z,0.00
2019-05-11T03:59:39.159Z,0.00
2019-05-11T04:00:39.094Z,0.00
2019-05-11T04:01:39.031Z,0.00
2019-05-11T04:02:38.959Z,0.00
2019-05-11T04:03:38.893Z,0.00
2019-05-11T04:04:38.829Z,0.00
2019-05-11T04:05:38.757Z,0.00
2019-05-11T04:06:38.693Z,0.00
2019-05-11T04:07:38.626Z,0.00
2019-05-11T04:08:38.553Z,0.00
2019-05-11T04:09:38.490Z,0.00
2019-05-11T04:10:38.423Z,0.00
2019-05-11T04:11:38.361Z,0.00
2019-05-11T04:12:38.288Z,0.00
2019-05-11T04:13:38.222Z,0.00
2019-05-11T04:14:38.151Z,0.00
2019-05-11T04:15:38.107Z,0.00
2019-05-11T04:16:38.027Z,0.00
2019-05-11T04:17:37.951Z,0.00
2019-05-11T04:18:37.893Z,0.00
2019-05-11T04:19:37.815Z,0.00
2019-05-11T04:20:37.747Z,0.00
2019-05-11T04:21:37.723Z,0.00
2019-05-11T04:22:37.620Z,0.00
2019-05-11T04:23:37.559Z,0.00
2019-05-11T04:24:37.530Z,0.00
2019-05-11T04:25:37.429Z,0.00
2019-05-11T04:26:37.343Z,0.00
2019-05-11T04:27:37.281Z,0.00
2019-05-11T04:28:37.212Z,0.00
2019-05-11T04:29:37.140Z,0.00
2019-05-11T04:30:37.092Z,0.00
2019-05-11T04:31:37.005Z,0.00
2019-05-11T04:32:36.937Z,0.00
2019-05-11T04:33:36.874Z,0.00
2019-05-11T04:34:36.811Z,0.00
2019-05-11T04:35:36.743Z,0.00
2019-05-11T04:36:36.668Z,0.00
2019-05-11T04:37:36.625Z,0.00
2019-05-11T04:38:36.533Z,0.00
2019-05-11T04:39:36.467Z,0.00
2019-05-11T04:40:36.393Z,0.00
2019-05-11T04:41:36.329Z,0.00
2019-05-11T04:42:53.405Z,0.00
2019-05-11T04:43:36.191Z,0.00
2019-05-11T04:44:36.127Z,0.00
2019-05-11T04:45:36.067Z,0.00
2019-05-11T04:46:35.991Z,0.00
2019-05-11T04:47:35.926Z,0.00
2019-05-11T04:48:35.854Z,0.00
2019-05-11T04:49:35.794Z,0.00
2019-05-11T04:50:35.724Z,0.00
2019-05-11T04:51:35.657Z,0.00
2019-05-11T04:52:35.583Z,0.00
2019-05-11T04:53:35.517Z,0.00
2019-05-11T04:54:35.453Z,0.00
2019-05-11T04:55:35.376Z,0.00
2019-05-11T04:56:35.332Z,5.63
2019-05-11T04:57:35.249Z,5.63
2019-05-11T04:58:35.192Z,5.63
2019-05-11T04:59:35.113Z,5.63
2019-05-11T05:00:35.040Z,5.63
2019-05-11T05:01:34.975Z,5.63
2019-05-11T05:02:34.947Z,5.63
2019-05-11T05:03:40.689Z,5.63
2019-05-11T05:04:34.770Z,5.63
2019-05-11T05:05:34.710Z,5.63
2019-05-11T05:06:34.636Z,5.63
2019-05-11T05:07:34.566Z,11.25
2019-05-11T05:08:34.498Z,11.25
2019-05-11T05:09:36.034Z,11.25
2019-05-11T05:10:34.366Z,11.25
2019-05-11T05:11:36.674Z,11.25
2019-05-11T05:12:34.232Z,11.25
2019-05-11T05:13:34.160Z,11.25
2019-05-11T05:14:34.091Z,16.88
2019-05-11T05:15:34.027Z,16.88
2019-05-11T05:16:33.960Z,16.88
2019-05-11T05:17:33.892Z,16.88
2019-05-11T05:18:33.828Z,22.50
2019-05-11T05:19:33.753Z,22.50
2019-05-11T05:20:33.688Z,22.50
2019-05-11T05:21:33.621Z,28.13
2019-05-11T05:22:33.556Z,28.13
2019-05-11T05:23:33.486Z,28.13
2019-05-11T05:24:33.418Z,33.75
2019-05-11T05:25:33.353Z,33.75
2019-05-11T05:26:33.285Z,33.75
2019-05-11T05:27:33.218Z,33.75
2019-05-11T05:28:33.147Z,33.75
2019-05-11T05:29:33.086Z,39.38
2019-05-11T05:30:33.015Z,39.38
2019-05-11T05:31:32.944Z,45.00
2019-05-11T05:32:32.873Z,50.63
2019-05-11T05:33:32.808Z,50.63
2019-05-11T05:34:32.743Z,50.63
2019-05-11T05:35:32.674Z,50.63
2019-05-11T05:36:32.605Z,50.63
2019-05-11T05:37:32.539Z,50.63
2019-05-11T05:38:32.470Z,56.25
2019-05-11T05:39:32.408Z,61.88
2019-05-11T05:40:32.341Z,61.88
2019-05-11T05:41:32.271Z,61.88
2019-05-11T05:42:32.203Z,61.88
2019-05-11T05:43:32.136Z,56.25
2019-05-11T05:44:32.064Z,56.25
2019-05-11T05:45:31.999Z,56.25
2019-05-11T05:46:31.931Z,61.88
2019-05-11T05:47:31.868Z,67.50
2019-05-11T05:48:31.798Z,67.50
2019-05-11T05:49:31.732Z,78.75
2019-05-11T05:50:31.664Z,78.75
2019-05-11T05:51:31.597Z,78.75
2019-05-11T05:52:31.530Z,73.13
2019-05-11T05:53:31.463Z,78.75
2019-05-11T05:54:31.399Z,84.38
2019-05-11T05:55:31.329Z,84.38
2019-05-11T05:56:31.260Z,84.38
2019-05-11T05:57:31.194Z,84.38
2019-05-11T05:58:31.133Z,84.38
2019-05-11T05:59:31.061Z,90.00
2019-05-11T06:00:30.991Z,95.63
2019-05-11T06:01:30.929Z,101.25
2019-05-11T06:02:30.858Z,101.25
2019-05-11T06:03:30.793Z,101.25
2019-05-11T06:04:30.737Z,101.25
2019-05-11T06:05:30.659Z,101.25
2019-05-11T06:06:30.595Z,106.88
2019-05-11T06:07:30.524Z,106.88
2019-05-11T06:08:30.456Z,106.88
2019-05-11T06:09:30.392Z,106.88
2019-05-11T06:10:30.324Z,101.25
2019-05-11T06:11:30.259Z,106.88
2019-05-11T06:12:30.194Z,106.88
2019-05-11T06:13:44.711Z,112.50
2019-05-11T06:14:30.056Z,118.13
2019-05-11T06:15:29.992Z,118.13
2019-05-11T06:16:29.947Z,118.13
2019-05-11T06:17:29.861Z,123.75
2019-05-11T06:18:29.793Z,123.75
2019-05-11T06:19:29.726Z,123.75
2019-05-11T06:20:29.658Z,123.75
2019-05-11T06:21:29.600Z,129.38
2019-05-11T06:22:29.529Z,129.38
2019-05-11T06:23:29.459Z,129.38
2019-05-11T06:24:29.398Z,129.38
2019-05-11T06:25:29.355Z,123.75
2019-05-11T06:26:29.263Z,129.38
2019-05-11T06:27:29.198Z,129.38
2019-05-11T06:28:29.129Z,129.38
2019-05-11T06:29:29.060Z,146.25
2019-05-11T06:30:28.996Z,135.00
2019-05-11T06:31:28.931Z,135.00
2019-05-11T06:32:28.865Z,146.25
2019-05-11T06:33:28.823Z,151.88
2019-05-11T06:34:28.733Z,118.13
2019-05-11T06:35:28.672Z,157.50
2019-05-11T06:36:28.620Z,151.88
2019-05-11T06:37:28.533Z,157.50
2019-05-11T06:38:28.468Z,157.50
2019-05-11T06:39:28.397Z,157.50
2019-05-11T06:40:28.778Z,157.50
2019-05-11T06:41:28.269Z,157.50
2019-05-11T06:42:28.204Z,157.50
2019-05-11T06:43:28.132Z,157.50
2019-05-11T06:44:28.072Z,157.50
2019-05-11T06:45:28.010Z,157.50
2019-05-11T06:46:27.944Z,163.13
2019-05-11T06:47:27.874Z,163.13
2019-05-11T06:48:27.813Z,163.13
2019-05-11T06:49:27.741Z,163.13
2019-05-11T06:50:27.674Z,163.13
2019-05-11T06:51:27.609Z,174.38
2019-05-11T06:52:27.547Z,174.38
2019-05-11T06:53:27.478Z,151.88
2019-05-11T06:54:27.412Z,168.75
2019-05-11T06:55:27.347Z,163.13
2019-05-11T06:56:27.296Z,174.38
2019-05-11T06:57:27.214Z,174.38
2019-05-11T06:58:27.148Z,185.63
2019-05-11T06:59:27.093Z,180.00
2019-05-11T07:00:27.031Z,174.38
2019-05-11T07:01:26.954Z,168.75
2019-05-11T07:02:26.886Z,174.38
2019-05-11T07:03:26.821Z,168.75
2019-05-11T07:04:26.754Z,185.63
2019-05-11T07:05:26.697Z,185.63
2019-05-11T07:06:30.322Z,174.38
2019-05-11T07:07:26.556Z,157.50
2019-05-11T07:08:26.493Z,168.75
2019-05-11T07:09:26.424Z,151.88
2019-05-11T07:10:26.364Z,185.63
2019-05-11T07:11:26.297Z,180.00
2019-05-11T07:12:27.737Z,146.25
2019-05-11T07:13:26.164Z,140.63
2019-05-11T07:14:26.104Z,185.63
2019-05-11T07:15:26.048Z,174.38
2019-05-11T07:16:25.971Z,180.00
2019-05-11T07:17:25.910Z,151.88
2019-05-11T07:18:25.841Z,112.50
2019-05-11T07:19:25.775Z,118.13
2019-05-11T07:20:25.710Z,146.25
2019-05-11T07:21:25.641Z,129.38
2019-05-11T07:22:25.579Z,123.75
2019-05-11T07:23:25.514Z,140.63
2019-05-11T07:24:25.444Z,146.25
2019-05-11T07:25:25.382Z,168.75
2019-05-11T07:26:25.409Z,168.75
2019-05-11T07:27:25.253Z,168.75
2019-05-11T07:28:25.185Z,174.38
2019-05-11T07:29:25.120Z,140.63
2019-05-11T07:30:25.053Z,135.00
2019-05-11T07:31:24.988Z,151.88
2019-05-11T07:32:26.123Z,168.75
2019-05-11T07:33:24.852Z,163.13
2019-05-11T07:34:24.791Z,185.63
2019-05-11T07:35:24.723Z,135.00
2019-05-11T07:36:24.659Z,168.75
2019-05-11T07:37:24.630Z,168.75
2019-05-11T07:38:24.528Z,174.38
2019-05-11T07:39:24.463Z,174.38
2019-05-11T07:40:24.399Z,135.00
2019-05-11T07:41:24.341Z,168.75
2019-05-11T07:42:24.267Z,157.50
2019-05-11T07:43:24.204Z,168.75
2019-05-11T07:44:35.863Z,180.00
2019-05-11T07:45:24.068Z,202.50
2019-05-11T07:46:24.005Z,196.88
2019-05-11T07:47:23.940Z,191.25
2019-05-11T07:48:23.964Z,180.00
2019-05-11T07:49:24.003Z,202.50
2019-05-11T07:50:23.739Z,196.88
2019-05-11T07:51:23.701Z,202.50
2019-05-11T07:52:23.616Z,196.88
2019-05-11T07:53:23.720Z,191.25
2019-05-11T07:54:23.478Z,191.25
2019-05-11T07:55:23.419Z,196.88
2019-05-11T07:56:23.367Z,196.88
2019-05-11T07:57:23.385Z,196.88
2019-05-11T07:58:23.221Z,196.88
2019-05-11T07:59:23.158Z,196.88
2019-05-11T08:00:23.096Z,196.88
2019-05-11T08:01:23.029Z,202.50
2019-05-11T08:02:22.957Z,202.50
2019-05-11T08:03:22.899Z,196.88
2019-05-11T08:04:23.120Z,191.25
2019-05-11T08:05:22.765Z,196.88
2019-05-11T08:06:22.705Z,185.63
2019-05-11T08:07:22.658Z,196.88
2019-05-11T08:08:25.045Z,185.63
2019-05-11T08:09:22.507Z,196.88
2019-05-11T08:10:23.339Z,191.25
2019-05-11T08:11:22.869Z,196.88
2019-05-11T08:12:22.306Z,191.25
2019-05-11T08:13:22.250Z,180.00
2019-05-11T08:14:22.191Z,191.25
2019-05-11T08:15:22.117Z,191.25
2019-05-11T08:16:22.055Z,180.00
2019-05-11T08:17:21.993Z,191.25
2019-05-11T08:18:21.925Z,202.50
2019-05-11T08:19:21.879Z,191.25
2019-05-11T08:20:21.795Z,185.63
2019-05-11T08:21:21.731Z,202.50
2019-05-11T08:22:22.966Z,202.50
2019-05-11T08:23:21.603Z,196.88
2019-05-11T08:24:21.537Z,202.50
2019-05-11T08:25:21.481Z,213.75
2019-05-11T08:26:21.411Z,219.38
2019-05-11T08:27:21.343Z,225.00
2019-05-11T08:28:21.279Z,219.38
2019-05-11T08:29:21.213Z,208.13
2019-05-11T08:30:21.153Z,208.13
2019-05-11T08:31:21.089Z,219.38
2019-05-11T08:32:21.144Z,191.25
2019-05-11T08:33:20.961Z,208.13
2019-05-11T08:34:20.892Z,208.13
2019-05-11T08:35:20.829Z,213.75
2019-05-11T08:36:20.769Z,202.50
2019-05-11T08:37:20.699Z,196.88
2019-05-11T08:38:20.639Z,196.88
2019-05-11T08:39:20.570Z,191.25
2019-05-11T08:40:20.504Z,185.63
2019-05-11T08:41:20.446Z,180.00
2019-05-11T08:42:20.380Z,180.00
2019-05-11T08:43:20.313Z,174.38
2019-05-11T08:44:20.244Z,191.25
2019-05-11T08:45:24.553Z,202.50
2019-05-11T08:46:20.115Z,191.25
2019-05-11T08:47:20.093Z,202.50
2019-05-11T08:48:19.991Z,185.63
2019-05-11T08:49:19.927Z,185.63
2019-05-11T08:50:19.859Z,185.63
2019-05-11T08:51:19.795Z,191.25
2019-05-11T08:52:19.735Z,185.63
2019-05-11T08:53:19.665Z,185.63
2019-05-11T08:54:19.605Z,180.00
2019-05-11T08:55:19.536Z,196.88
2019-05-11T08:56:19.475Z,191.25
2019-05-11T08:57:19.409Z,180.00
2019-05-11T08:58:19.725Z,191.25
2019-05-11T08:59:19.280Z,185.63
2019-05-11T09:00:19.214Z,191.25
2019-05-11T09:01:19.148Z,191.25
2019-05-11T09:02:19.082Z,185.63
2019-05-11T09:03:19.021Z,185.63
2019-05-11T09:04:18.955Z,180.00
2019-05-11T09:05:18.967Z,180.00
2019-05-11T09:06:18.831Z,196.88
2019-05-11T09:07:18.767Z,185.63
2019-05-11T09:08:18.965Z,191.25
2019-05-11T09:09:18.669Z,191.25
2019-05-11T09:10:18.861Z,196.88
2019-05-11T09:11:19.185Z,202.50
2019-05-11T09:12:18.470Z,202.50
2019-05-11T09:13:18.709Z,202.50
2019-05-11T09:14:18.948Z,196.88
2019-05-11T09:15:32.625Z,208.13
2019-05-11T09:16:19.090Z,208.13
2019-05-11T09:17:18.321Z,191.25
2019-05-11T09:18:18.819Z,191.25
2019-05-11T09:19:17.992Z,196.88
2019-05-11T09:20:18.131Z,185.63
2019-05-11T09:21:19.023Z,191.25
2019-05-11T09:22:18.638Z,185.63
2019-05-11T09:23:32.470Z,180.00
2019-05-11T09:24:18.951Z,163.13
2019-05-11T09:25:18.269Z,180.00
2019-05-11T09:26:18.338Z,191.25
2019-05-11T09:27:18.406Z,185.63
2019-05-11T09:28:18.059Z,185.63
2019-05-11T09:29:17.990Z,180.00
2019-05-11T09:30:18.422Z,180.00
2019-05-11T09:31:18.846Z,185.63
2019-05-11T09:32:17.938Z,185.63
2019-05-11T09:33:20.485Z,185.63
2019-05-11T09:34:18.120Z,185.63
2019-05-11T09:35:18.887Z,185.63
2019-05-11T09:36:18.017Z,191.25
2019-05-11T09:37:18.441Z,191.25
2019-05-11T09:38:18.532Z,180.00
2019-05-11T09:39:17.735Z,185.63
2019-05-11T09:40:18.249Z,174.38
2019-05-11T09:41:18.034Z,174.38
2019-05-11T09:42:17.956Z,174.38
2019-05-11T09:43:17.889Z,174.38
2019-05-11T09:44:18.269Z,174.38
2019-05-11T09:45:18.412Z,174.38
2019-05-11T09:46:18.551Z,174.38
2019-05-11T09:47:18.778Z,174.38
2019-05-11T09:48:18.026Z,174.38
2019-05-11T09:49:18.351Z,174.38
2019-05-11T09:50:17.876Z,168.75
2019-05-11T09:51:18.203Z,163.13
2019-05-11T09:52:18.206Z,168.75
2019-05-11T09:53:17.746Z,168.75
2019-05-11T09:54:18.109Z,163.13
2019-05-11T09:55:15.663Z,163.13
2019-05-11T09:56:18.099Z,157.50
2019-05-11T09:57:15.533Z,163.13
2019-05-11T09:58:15.468Z,168.75
2019-05-11T09:59:17.713Z,168.75
2019-05-11T10:00:17.762Z,163.13
2019-05-11T10:01:15.284Z,163.13
2019-05-11T10:02:18.639Z,157.50
2019-05-11T10:03:15.151Z,163.13
2019-05-11T10:04:15.084Z,163.13
2019-05-11T10:05:15.019Z,168.75
2019-05-11T10:06:14.955Z,168.75
2019-05-11T10:07:14.889Z,168.75
2019-05-11T10:08:14.832Z,168.75
2019-05-11T10:09:14.763Z,168.75
2019-05-11T10:10:14.691Z,163.13
2019-05-11T10:11:14.631Z,163.13
2019-05-11T10:12:14.563Z,168.75
2019-05-11T10:13:14.500Z,163.13
2019-05-11T10:14:14.434Z,163.13
2019-05-11T10:15:14.373Z,157.50
2019-05-11T10:16:14.305Z,157.50
2019-05-11T10:17:14.241Z,151.88
2019-05-11T10:18:14.178Z,157.50
2019-05-11T10:19:14.109Z,140.63
2019-05-11T10:20:14.045Z,146.25
2019-05-11T10:21:13.989Z,151.88
2019-05-11T10:22:13.909Z,151.88
2019-05-11T10:23:13.850Z,157.50
2019-05-11T10:24:13.787Z,151.88
2019-05-11T10:25:13.720Z,151.88
2019-05-11T10:26:13.654Z,151.88
2019-05-11T10:27:13.592Z,151.88
2019-05-11T10:28:13.523Z,146.25
2019-05-11T10:29:13.455Z,146.25
2019-05-11T10:30:13.391Z,146.25
2019-05-11T10:31:13.334Z,146.25
2019-05-11T10:32:13.266Z,146.25
2019-05-11T10:33:13.193Z,146.25
2019-05-11T10:34:13.129Z,146.25
2019-05-11T10:35:13.066Z,146.25
2019-05-11T10:36:13.009Z,146.25
2019-05-11T10:37:12.940Z,140.63
2019-05-11T10:38:12.876Z,140.63
2019-05-11T10:39:12.816Z,140.63
2019-05-11T10:40:12.799Z,140.63
2019-05-11T10:41:12.679Z,140.63
2019-05-11T10:42:12.611Z,140.63
2019-05-11T10:43:12.546Z,140.63
2019-05-11T10:44:12.489Z,140.63
2019-05-11T10:45:12.416Z,140.63
2019-05-11T10:46:19.446Z,140.63
2019-05-11T10:47:12.285Z,135.00
2019-05-11T10:48:12.221Z,135.00
2019-05-11T10:49:12.158Z,135.00
2019-05-11T10:50:12.090Z,140.63
2019-05-11T10:51:12.026Z,135.00
2019-05-11T10:52:11.957Z,135.00
2019-05-11T10:53:11.913Z,135.00
2019-05-11T10:54:11.823Z,135.00
2019-05-11T10:55:11.765Z,129.38
2019-05-11T10:56:11.696Z,129.38
2019-05-11T10:57:11.631Z,129.38
2019-05-11T10:58:11.563Z,135.00
2019-05-11T10:59:11.504Z,135.00
2019-05-11T11:00:11.439Z,135.00
2019-05-11T11:01:11.372Z,135.00
2019-05-11T11:02:11.306Z,135.00
2019-05-11T11:03:11.238Z,135.00
2019-05-11T11:04:11.178Z,129.38
2019-05-11T11:05:11.110Z,129.38
2019-05-11T11:06:11.056Z,129.38
2019-05-11T11:07:10.978Z,129.38
2019-05-11T11:08:10.913Z,123.75
2019-05-11T11:09:10.845Z,123.75
2019-05-11T11:10:10.782Z,129.38
2019-05-11T11:11:10.720Z,129.38
2019-05-11T11:12:10.654Z,129.38
2019-05-11T11:13:10.588Z,123.75
2019-05-11T11:14:10.521Z,123.75
2019-05-11T11:15:10.455Z,123.75
2019-05-11T11:16:10.395Z,123.75
2019-05-11T11:17:10.321Z,123.75
2019-05-11T11:18:10.255Z,123.75
2019-05-11T11:19:10.202Z,118.13
2019-05-11T11:20:10.132Z,118.13
2019-05-11T11:21:10.063Z,123.75
2019-05-11T11:22:33.256Z,118.13
2019-05-11T11:23:09.934Z,123.75
2019-05-11T11:24:09.871Z,123.75
2019-05-11T11:25:09.814Z,129.38
2019-05-11T11:26:09.742Z,118.13
2019-05-11T11:27:10.897Z,118.13
2019-05-11T11:28:09.603Z,118.13
2019-05-11T11:29:09.544Z,118.13
2019-05-11T11:30:09.478Z,118.13
2019-05-11T11:31:09.412Z,118.13
2019-05-11T11:32:09.343Z,118.13
2019-05-11T11:33:09.285Z,112.50
2019-05-11T11:34:09.217Z,112.50
2019-05-11T11:35:09.157Z,118.13
2019-05-11T11:36:09.084Z,118.13
2019-05-11T11:37:09.021Z,118.13
2019-05-11T11:38:08.953Z,112.50
2019-05-11T11:39:08.901Z,112.50
2019-05-11T11:40:08.834Z,118.13
2019-05-11T11:41:08.758Z,112.50
2019-05-11T11:42:08.696Z,106.88
2019-05-11T11:43:08.817Z,106.88
2019-05-11T11:44:08.566Z,106.88
2019-05-11T11:45:08.502Z,106.88
2019-05-11T11:46:08.507Z,106.88
2019-05-11T11:47:08.792Z,106.88
2019-05-11T11:48:08.784Z,106.88
2019-05-11T11:49:08.455Z,112.50
2019-05-11T11:50:09.124Z,106.88
2019-05-11T11:51:08.275Z,106.88
2019-05-11T11:52:08.226Z,106.88
2019-05-11T11:53:08.480Z,106.88
2019-05-11T11:54:08.738Z,106.88
2019-05-11T11:55:08.387Z,106.88
2019-05-11T11:56:08.484Z,106.88
2019-05-11T11:57:07.863Z,118.13
2019-05-11T11:58:08.262Z,112.50
2019-05-11T11:59:08.509Z,101.25
2019-05-11T12:00:09.071Z,112.50
2019-05-11T12:01:08.227Z,112.50
2019-05-11T12:02:08.557Z,101.25
2019-05-11T12:03:08.025Z,101.25
2019-05-11T12:04:08.275Z,101.25
2019-05-11T12:05:08.811Z,95.63
2019-05-11T12:06:08.677Z,95.63
2019-05-11T12:07:08.433Z,95.63
2019-05-11T12:08:08.338Z,95.63
2019-05-11T12:09:08.859Z,95.63
2019-05-11T12:10:07.805Z,95.63
2019-05-11T12:11:07.947Z,95.63
2019-05-11T12:12:08.401Z,95.63
2019-05-11T12:13:08.706Z,95.63
2019-05-11T12:14:08.520Z,95.63
2019-05-11T12:15:08.633Z,95.63
2019-05-11T12:16:07.725Z,90.00
2019-05-11T12:17:08.634Z,90.00
2019-05-11T12:18:08.215Z,90.00
2019-05-11T12:19:08.138Z,90.00
2019-05-11T12:20:08.743Z,90.00
2019-05-11T12:21:08.071Z,90.00
2019-05-11T12:22:08.451Z,90.00
2019-05-11T12:23:06.017Z,84.38
2019-05-11T12:24:08.135Z,84.38
2019-05-11T12:25:07.787Z,84.38
2019-05-11T12:26:08.214Z,84.38
2019-05-11T12:27:07.696Z,84.38
2019-05-11T12:28:07.877Z,84.38
2019-05-11T12:29:05.620Z,84.38
2019-05-11T12:30:05.551Z,84.38
2019-05-11T12:31:05.483Z,84.38
2019-05-11T12:32:07.971Z,84.38
2019-05-11T12:33:05.349Z,84.38
2019-05-11T12:34:05.286Z,84.38
2019-05-11T12:35:05.221Z,84.38
2019-05-11T12:36:05.157Z,78.75
2019-05-11T12:37:05.102Z,78.75
2019-05-11T12:38:05.024Z,78.75
2019-05-11T12:39:04.957Z,78.75
2019-05-11T12:40:04.891Z,78.75
2019-05-11T12:41:04.825Z,78.75
2019-05-11T12:42:04.758Z,78.75
2019-05-11T12:43:04.704Z,78.75
2019-05-11T12:44:04.627Z,78.75
2019-05-11T12:45:04.564Z,78.75
2019-05-11T12:46:04.499Z,78.75
2019-05-11T12:47:17.603Z,78.75
2019-05-11T12:48:04.364Z,78.75
2019-05-11T12:49:04.302Z,78.75
2019-05-11T12:50:04.253Z,78.75